Portada
METAR-TAF:

METAR-TAF

Aeroports :

Addis Abeba, Etiòpia

latitud: 08-59N, longitud: 038-48E, altitud: 2355 m

Observació

L'informe es va fer fa 1 hora i 17 minuts, a les 13:00 UTC
Vent 8 kt del Sud-Est
Temperatura 24°C
Humitat 38%
Pressió 1023 hPa
Visibilitat 10 km o més
Núvols disperses a una alçada de 3000 ft

METAR: HAAB 181300Z 13008KT 9999 SCT030 24/09 Q1023

Hora: 17:17 (14:17 UTC)

Pronòstic

L'informe es va fer fa 10 hores i 47 minuts, a les 03:30 UTC
Pronòstic vàlid del 18 a les 06 UTC al 19 a les 12 UTC
Vent 14 kt del Sud-Est
Visibilitat 10 km o més
Escasses núvols a una alçada de 3000 ft
Núvols disperses a una alçada de 12000 ft
Temporalment
l' 18 a les 06 UTC al 18 a les 12 UTC
Vent 10 kt del Sud-Est
Núvols disperses a una alçada de 9000 ft

TAF: HAAB 180330Z 1806/1912 14014KT 9999 FEW030 SCT120 TEMPO 1806/1812 13010KT SCT090

Observacions i pronòstics meteorològics de més de 4000 aeroports (METAR i TAF).

Les estacions disponibles són els punts grocs i vermells al mapa.

Posi el ratolí al punt desitjat per veure el nom de l'estació.

Feu clic per veure les observacions i els pronòstics meteorològics.

Per canviar el mapa: feu clic els botons verds amb una creu de color negre per apropar; al botó verd amb un guió per allunyar la imatge; o en les fletxes verdes per a mapes adjacents.


METAR-TAF: